createdAt,value
2023-03-14T00:03:45.448Z,98716.22
2023-03-14T00:08:49.452Z,98712.38
2023-03-14T00:13:52.049Z,98719.00
2023-03-14T00:18:56.384Z,98708.03
2023-03-14T00:23:58.131Z,98693.09
2023-03-14T00:28:59.881Z,98699.53
2023-03-14T00:34:04.100Z,98689.91
2023-03-14T00:39:08.144Z,98695.47
2023-03-14T00:44:09.846Z,98691.41
2023-03-14T00:49:14.020Z,98694.28
2023-03-14T00:54:15.879Z,98704.22
2023-03-14T00:59:19.769Z,98698.81
2023-03-14T01:04:21.502Z,98704.66
2023-03-14T01:09:25.522Z,98681.13
2023-03-14T01:14:29.688Z,98668.94
2023-03-14T01:19:35.809Z,98681.97
2023-03-14T01:24:38.432Z,98674.31
2023-03-14T01:29:40.415Z,98669.66
2023-03-14T01:34:44.972Z,98645.97
2023-03-14T01:39:49.146Z,98634.38
2023-03-14T01:45:00.136Z,98621.47
2023-03-14T01:50:05.486Z,98627.13
2023-03-14T01:55:11.235Z,98618.41
2023-03-14T02:00:16.205Z,98623.19
2023-03-14T02:05:40.641Z,98636.22
2023-03-14T02:10:49.379Z,98624.00
2023-03-14T02:15:53.569Z,98613.41
2023-03-14T02:21:25.377Z,98613.41
2023-03-14T02:26:37.859Z,98605.53
2023-03-14T02:31:39.778Z,98617.50
2023-03-14T02:36:41.577Z,98616.44
2023-03-14T02:41:50.273Z,98612.97
2023-03-14T02:46:55.482Z,98620.41
2023-03-14T02:51:57.326Z,98630.28
2023-03-14T02:57:01.550Z,98610.75
2023-03-14T03:02:03.295Z,98607.50
2023-03-14T03:07:08.342Z,98598.94
2023-03-14T03:12:15.560Z,98596.03
2023-03-14T03:17:20.441Z,98598.47
2023-03-14T03:22:22.535Z,98589.88
2023-03-14T03:27:28.978Z,98588.00
2023-03-14T03:32:31.377Z,98593.44
2023-03-14T03:37:35.925Z,98585.66
2023-03-14T03:42:42.372Z,98578.94
2023-03-14T03:47:48.375Z,98573.81
2023-03-14T03:52:52.461Z,98576.94
2023-03-14T03:57:54.297Z,98568.00
2023-03-14T04:02:56.057Z,98577.97
2023-03-14T04:07:58.551Z,98587.69
2023-03-14T04:13:05.364Z,98578.06
2023-03-14T04:18:09.435Z,98570.81
2023-03-14T04:23:11.317Z,98582.41
2023-03-14T04:28:13.230Z,98578.22
2023-03-14T04:33:18.329Z,98581.72
2023-03-14T04:38:27.096Z,98587.84
2023-03-14T04:43:32.057Z,98556.31
2023-03-14T04:48:39.317Z,98551.78
2023-03-14T04:53:44.255Z,98562.00
2023-03-14T04:58:48.680Z,98554.69
2023-03-14T05:03:52.625Z,98556.41
2023-03-14T05:09:07.049Z,98555.59
2023-03-14T05:14:28.472Z,98570.69
2023-03-14T05:19:53.136Z,98573.91
2023-03-14T05:25:12.241Z,98548.41
2023-03-14T05:30:34.792Z,98539.13
2023-03-14T05:35:58.729Z,98552.56
2023-03-14T05:41:21.402Z,98542.31
2023-03-14T05:46:45.126Z,98542.28
2023-03-14T05:52:02.719Z,98544.13
2023-03-14T05:57:23.429Z,98537.28
2023-03-14T06:02:48.403Z,98567.00
2023-03-14T06:07:57.336Z,98525.59
2023-03-14T06:13:02.775Z,98535.97
2023-03-14T06:18:07.027Z,98553.03
2023-03-14T06:23:10.490Z,98525.69
2023-03-14T06:28:12.343Z,98533.69
2023-03-14T06:33:20.073Z,98546.44
2023-03-14T06:38:21.988Z,98557.63
2023-03-14T06:43:27.536Z,98540.59
2023-03-14T06:48:30.071Z,98545.31
2023-03-14T06:53:35.035Z,98537.41
2023-03-14T06:58:38.607Z,98549.91
2023-03-14T07:03:44.288Z,98552.31
2023-03-14T07:08:46.484Z,98578.16
2023-03-14T07:13:52.090Z,98569.50
2023-03-14T07:18:59.116Z,98561.81
2023-03-14T07:24:03.462Z,98583.94
2023-03-14T07:29:09.632Z,98579.66
2023-03-14T07:34:12.081Z,98568.03
2023-03-14T07:39:20.271Z,98606.44
2023-03-14T07:44:48.236Z,98643.59
2023-03-14T07:49:49.990Z,98703.75
2023-03-14T07:54:51.673Z,98750.28
2023-03-14T07:59:58.174Z,98759.19
2023-03-14T08:05:02.331Z,98791.50
2023-03-14T08:10:07.097Z,98825.06
2023-03-14T08:15:09.291Z,98840.97
2023-03-14T08:20:12.687Z,98859.44
2023-03-14T08:25:19.493Z,98882.66
2023-03-14T08:30:22.274Z,98912.88
2023-03-14T08:35:24.834Z,98924.91
2023-03-14T08:40:26.581Z,98953.78
2023-03-14T08:45:30.585Z,98977.47
2023-03-14T08:50:32.295Z,99007.53
2023-03-14T08:55:34.096Z,99016.00
2023-03-14T09:00:38.213Z,99025.34
2023-03-14T09:05:39.890Z,99054.50
2023-03-14T09:10:41.746Z,99053.59
2023-03-14T09:15:43.506Z,99067.47
2023-03-14T09:20:48.796Z,99095.41
2023-03-14T09:25:50.454Z,99115.13
2023-03-14T09:30:55.456Z,99109.41
2023-03-14T09:36:00.021Z,99132.59
2023-03-14T09:41:06.520Z,99157.78
2023-03-14T09:46:10.487Z,99171.53
2023-03-14T09:51:17.985Z,99178.03
2023-03-14T09:56:29.291Z,99188.41
2023-03-14T10:01:33.451Z,99202.38
2023-03-14T10:06:38.115Z,99213.59
2023-03-14T10:11:40.822Z,99236.00
2023-03-14T10:16:45.087Z,99252.66
2023-03-14T10:21:55.044Z,99272.91
2023-03-14T10:27:03.876Z,99281.72
2023-03-14T10:32:08.855Z,99314.28
2023-03-14T10:37:26.786Z,99347.53
2023-03-14T10:42:32.764Z,99367.22
2023-03-14T10:47:35.336Z,99363.91
2023-03-14T10:53:01.475Z,99382.03
2023-03-14T10:58:20.120Z,99385.84
2023-03-14T11:03:22.959Z,99423.56
2023-03-14T11:08:33.226Z,99439.28
2023-03-14T11:14:08.242Z,99446.41
2023-03-14T11:19:35.745Z,99470.13
2023-03-14T11:24:55.293Z,99490.00
2023-03-14T11:30:35.172Z,99492.81
2023-03-14T11:35:58.755Z,99516.88
2023-03-14T11:41:01.412Z,99518.56
2023-03-14T11:46:08.854Z,99541.19
2023-03-14T11:51:25.488Z,99546.47
2023-03-14T11:57:02.416Z,99560.56
2023-03-14T12:02:38.456Z,99563.63
2023-03-14T12:07:45.366Z,99578.44
2023-03-14T12:12:52.283Z,99582.22
2023-03-14T12:18:02.445Z,99610.91
2023-03-14T12:23:06.764Z,99611.41
2023-03-14T12:28:20.265Z,99627.28
2023-03-14T12:33:28.058Z,99662.47
2023-03-14T12:38:56.230Z,99678.75
2023-03-14T12:43:58.021Z,99694.84
2023-03-14T12:49:02.742Z,99702.56
2023-03-14T12:54:21.621Z,99702.56
2023-03-14T12:59:34.840Z,99738.28
2023-03-14T13:04:48.633Z,99747.63
2023-03-14T13:09:59.935Z,99753.56
2023-03-14T13:15:03.453Z,99766.91
2023-03-14T13:20:20.619Z,99795.66
2023-03-14T13:25:24.615Z,99796.75
2023-03-14T13:30:39.221Z,99812.84
2023-03-14T13:35:46.063Z,99829.84
2023-03-14T13:40:48.352Z,99849.25
2023-03-14T13:45:52.400Z,99853.75
2023-03-14T13:50:57.224Z,99862.91
2023-03-14T13:56:10.285Z,99874.13
2023-03-14T14:01:19.587Z,99880.06
2023-03-14T14:06:27.655Z,99898.28
2023-03-14T14:11:52.938Z,99906.28
2023-03-14T14:17:06.431Z,99931.66
2023-03-14T14:22:10.119Z,99959.34
2023-03-14T14:27:21.614Z,99966.09
2023-03-14T14:32:26.595Z,99964.41
2023-03-14T14:37:36.317Z,99989.56
2023-03-14T14:42:41.487Z,100001.47
2023-03-14T14:47:55.114Z,100015.69
2023-03-14T14:53:01.070Z,100022.34
2023-03-14T14:58:25.700Z,100031.72
2023-03-14T15:03:29.993Z,100045.44
2023-03-14T15:08:34.532Z,100069.78
2023-03-14T15:13:40.807Z,100075.09
2023-03-14T15:18:44.030Z,100071.19
2023-03-14T15:23:48.171Z,100093.06
2023-03-14T15:28:50.180Z,100098.53
2023-03-14T15:33:54.126Z,100109.22
2023-03-14T15:38:59.880Z,100119.38
2023-03-14T15:44:03.968Z,100109.31
2023-03-14T15:49:05.752Z,100131.75
2023-03-14T15:54:07.477Z,100154.16
2023-03-14T15:59:11.451Z,100162.00
2023-03-14T16:04:13.470Z,100161.81
2023-03-14T16:09:17.833Z,100179.28
2023-03-14T16:14:22.367Z,100198.47
2023-03-14T16:19:26.741Z,100213.28
2023-03-14T16:24:28.834Z,100219.75
2023-03-14T16:29:35.294Z,100232.81
2023-03-14T16:34:40.381Z,100235.41
2023-03-14T16:45:09.549Z,100265.50
2023-03-14T16:50:11.493Z,100278.94
2023-03-14T16:55:13.184Z,100288.59
2023-03-14T17:00:17.569Z,100297.38
2023-03-14T17:05:22.535Z,100308.78
2023-03-14T17:10:24.969Z,100310.72
2023-03-14T17:15:29.018Z,100328.53
2023-03-14T17:20:31.079Z,100343.16
2023-03-14T17:25:35.248Z,100354.34
2023-03-14T17:30:37.003Z,100386.91
2023-03-14T17:35:39.001Z,100394.47
2023-03-14T17:40:40.721Z,100408.47
2023-03-14T17:45:47.157Z,100410.72
2023-03-14T17:50:52.902Z,100415.69
2023-03-14T17:55:54.706Z,100422.94
2023-03-14T18:00:59.271Z,100426.38
2023-03-14T18:06:08.072Z,100434.16
2023-03-14T18:11:13.413Z,100440.72
2023-03-14T18:16:17.500Z,100448.78
2023-03-14T18:21:19.251Z,100466.03
2023-03-14T18:26:25.667Z,100475.38
2023-03-14T18:31:27.466Z,100484.53
2023-03-14T18:36:29.217Z,100488.84
2023-03-14T18:41:30.981Z,100508.72
2023-03-14T18:46:33.001Z,100519.56
2023-03-14T18:51:37.230Z,100495.94
2023-03-14T18:56:42.841Z,100494.19
2023-03-14T19:01:44.629Z,100516.72
2023-03-14T19:06:48.868Z,100515.75
2023-03-14T19:11:52.943Z,100526.44
2023-03-14T19:16:57.037Z,100532.13
2023-03-14T19:22:01.590Z,100531.69
2023-03-14T19:27:03.375Z,100545.16
2023-03-14T19:32:05.346Z,100551.81
2023-03-14T19:37:09.758Z,100565.25
2023-03-14T19:42:16.311Z,100577.09
2023-03-14T19:47:18.025Z,100582.63
2023-03-14T19:52:24.472Z,100589.31
2023-03-14T19:57:30.519Z,100588.47
2023-03-14T20:02:36.890Z,100586.50
2023-03-14T20:07:39.827Z,100572.78
2023-03-14T20:12:46.872Z,100576.88
2023-03-14T20:17:51.251Z,100577.78
2023-03-14T20:22:56.094Z,100585.69
2023-03-14T20:28:03.003Z,100597.13
2023-03-14T20:33:05.179Z,100620.56
2023-03-14T20:38:09.548Z,100657.84
2023-03-14T20:43:11.218Z,100663.31
2023-03-14T20:48:17.932Z,100667.75
2023-03-14T20:53:22.223Z,100655.34
2023-03-14T20:58:26.465Z,100659.75
2023-03-14T21:03:30.888Z,100658.88
2023-03-14T21:08:32.929Z,100663.38
2023-03-14T21:13:34.686Z,100666.50
2023-03-14T21:18:38.997Z,100670.13
2023-03-14T21:23:41.163Z,100672.66
2023-03-14T21:28:42.930Z,100681.91
2023-03-14T21:33:45.045Z,100677.47
2023-03-14T21:38:51.958Z,100675.22
2023-03-14T21:43:53.771Z,100684.69
2023-03-14T21:48:55.481Z,100679.75
2023-03-14T21:53:57.411Z,100680.81
2023-03-14T21:59:00.077Z,100681.09
2023-03-14T22:04:01.784Z,100684.78
2023-03-14T22:09:03.674Z,100687.66
2023-03-14T22:14:05.375Z,100700.09
2023-03-14T22:19:09.565Z,100706.19
2023-03-14T22:24:13.588Z,100703.31
2023-03-14T22:29:20.032Z,100698.78
2023-03-14T22:34:21.718Z,100705.22
2023-03-14T22:39:23.495Z,100699.50
2023-03-14T22:44:25.667Z,100697.47
2023-03-14T22:49:31.336Z,100704.38
2023-03-14T22:54:33.464Z,100712.97
2023-03-14T22:59:37.404Z,100724.25
2023-03-14T23:04:41.617Z,100750.78
2023-03-14T23:09:45.759Z,100752.34
2023-03-14T23:14:53.961Z,100750.53
2023-03-14T23:20:00.410Z,100763.75
2023-03-14T23:25:02.278Z,100763.25
2023-03-14T23:30:08.167Z,100780.16
2023-03-14T23:35:11.241Z,100789.97
2023-03-14T23:40:17.794Z,100777.75
2023-03-14T23:45:21.860Z,100757.19
2023-03-14T23:50:26.899Z,100747.00
2023-03-14T23:55:28.689Z,100761.47
